Airfield :
LOGIN :

Register | Disclaimer

   EN    FR    IT 

 










Legend :    VFR   Marginal VFR   IFR   Intensive IFR   Very Intensive IFR
Visi :
Ceiling :
>= 8 km
>= 3000ft
5 to 8 km
1000 to 3000 ft
1500m to 5 km
500 to 1000 ft
800 to 1500m
200 to 500 ft
< 800m
< 200 ft
Symbols :   Thunderstorms  Fog  Heavy snow  Heavy precipitations  Wind > 20 kt
SIGMETs :     Misc.  Thunderstorms  Icing  Turbulence  Mountain Waves  Volcanic Ashes






- Airport Elevation : 160 ft
- IATA code : FMO


EDDG - Münster Osnabrück Int.

CURRENT METAR :
  • 171920Z 30004KT 270V340 9999 FEW016 BKN025 06/04 Q1034 NOSIG

EXPIRED METARs :
  • 171850Z 32006KT 280V360 9999 FEW020 06/04 Q1034 NOSIG
  • 171820Z 32009KT 9999 FEW025 07/04 Q1034 NOSIG
  • 171750Z 32005KT 280V020 9999 BKN026 07/04 Q1033 NOSIG
  • 171720Z 33011KT 9999 FEW026 07/04 Q1033 BECMG 31005KT
  • 171650Z 33013KT 310V010 9999 FEW018 SCT038 08/04 Q1032 BECMG 31008KT

TAF TAF EDDG
Valid from the 17 at 18:00 until the 18 at 18:00 UTC


171700Z 1718/1818 31008KT 9999 BKN030
PROB30
TEMPO 1720/1724 BKN013
BECMG 1800/1803 28003KT BKN007
BECMG 1804/1806 4000 BR
PROB40
TEMPO 1806/1810 2000 BR BKN004
BECMG 1810/1813 8000
BECMG 1813/1815 BKN011



MET'MAP, your aeronautical weather chart ! - Copyright ORBIFLY December 2007 - Disclaimer

ORBIFLY MET'MAP TEAM :

Programming & Development : Alexandra Zaïnal
Concept & original design : Baudouin d'Aumeries
Assistance for programming : Marc-Olivier Méhu
Technical & hardware support : Manuel Goepfert

Contact : metmap@orbifly.com




SOURCES & CREDITS :

   NOAA